METAR Data
IDs: Format: Raw Decoded Include TAF

Data at: 0845 UTC 07 Apr 2020

METAR for:KHEF (Manassas Rgnl, VA, US)
Text:KHEF 070756Z AUTO 00000KT 10SM BKN110 10/06 A2997 RMK AO2 RAB36E50 SLP153 P0000 T01000056
Temperature: 10.0°C ( 50°F)
Dewpoint: 5.6°C ( 42°F) [RH = 74%]
Pressure (altimeter):29.97 inches Hg (1015.0 mb) [Sea level pressure: 1015.3 mb]
Winds:calm
Visibility:10 or more sm (16+ km)
Ceiling:11000 feet AGL
Clouds: broken clouds at 11000 feet AGL
QC Flag:automated observation with no human augmentation